Time;durP1;ratioP1;P1;durP2;ratioP2;P2;SDS_P1;SDS_P2;PMS_P1;PMS_P2;Temp;Humidity;BMP_temperature;BMP_pressure;BME280_temperature;BME280_humidity;BME280_pressure;Samples;Min_cycle;Max_cycle;Signal;HPM_P1;HPM_P2
2022/01/09 00:00:50;;;;;;;51.10;21.80;;;;;;;1.00;100.00;98147.75;4178996;84;28609;-85
2022/01/09 00:06:51;;;;;;;47.73;21.82;;;;;;;1.03;100.00;98153.15;4191648;83;44094;-85
2022/01/09 00:12:53;;;;;;;51.88;23.10;;;;;;;1.05;100.00;98139.23;4287375;81;43612;-85
2022/01/09 00:18:54;;;;;;;49.38;22.65;;;;;;;1.18;100.00;98135.85;4293117;80;44432;-85
2022/01/09 00:24:55;;;;;;;48.70;22.07;;;;;;;1.21;100.00;98133.64;4305394;81;44419;-87
2022/01/09 00:30:57;;;;;;;50.55;22.07;;;;;;;1.19;100.00;98121.11;4306636;81;43779;-88
2022/01/09 00:36:58;;;;;;;54.38;24.25;;;;;;;1.16;100.00;98117.53;4229395;82;44111;-86
2022/01/09 00:42:59;;;;;;;66.45;31.65;;;;;;;1.09;100.00;98110.03;4235326;82;44138;-88
2022/01/09 00:49:03;;;;;;;66.17;28.42;;;;;;;0.74;100.00;98094.89;4233595;82;43456;-87
2022/01/09 00:55:07;;;;;;;71.62;32.40;;;;;;;0.87;100.00;98093.36;4187003;82;44061;-87
2022/01/09 01:01:08;;;;;;;59.48;26.60;;;;;;;0.72;100.00;98084.19;4246310;81;42844;-88
2022/01/09 01:07:09;;;;;;;64.85;28.65;;;;;;;0.67;100.00;98082.11;4233661;82;28553;-88
2022/01/09 01:13:10;;;;;;;65.10;27.80;;;;;;;0.38;100.00;98075.45;4218400;82;43387;-87
2022/01/09 01:19:12;;;;;;;65.62;27.98;;;;;;;0.34;100.00;98060.98;4207600;82;44100;-88
2022/01/09 01:25:13;;;;;;;68.60;30.23;;;;;;;0.04;100.00;98061.58;4229041;82;44128;-88
2022/01/09 01:31:14;;;;;;;62.23;27.75;;;;;;;0.08;100.00;98054.93;4227128;82;28456;-88
2022/01/09 01:37:16;;;;;;;67.78;30.17;;;;;;;0.03;100.00;98049.37;4270317;81;44144;-88
2022/01/09 01:43:17;;;;;;;64.55;28.45;;;;;;;0.11;100.00;98042.65;4253870;82;43412;-87
2022/01/09 01:49:18;;;;;;;66.80;28.60;;;;;;;0.10;100.00;98042.34;4224420;82;43764;-86
2022/01/09 01:55:19;;;;;;;71.35;30.17;;;;;;;0.23;100.00;98035.05;4252661;82;44136;-85
2022/01/09 02:01:21;;;;;;;64.55;29.37;;;;;;;0.21;100.00;98030.43;4238047;82;43365;-83
2022/01/09 02:07:23;;;;;;;64.50;28.65;;;;;;;0.16;100.00;98008.55;4246310;82;43428;-84
2022/01/09 02:13:24;;;;;;;66.37;30.37;;;;;;;0.43;100.00;97999.52;4267846;82;44112;-85
2022/01/09 02:19:27;;;;;;;64.32;29.72;;;;;;;0.45;100.00;98003.30;4256614;82;43448;-85
2022/01/09 02:25:28;;;;;;;66.77;30.48;;;;;;;0.54;100.00;97989.73;4276121;82;44120;-83
2022/01/09 02:31:29;;;;;;;67.40;29.75;;;;;;;0.43;100.00;97988.13;4272428;82;44152;-87
2022/01/09 02:37:31;;;;;;;61.50;29.18;;;;;;;0.53;100.00;97980.69;4253708;82;43446;-89
2022/01/09 02:43:32;;;;;;;65.32;31.15;;;;;;;0.55;100.00;97985.27;4224538;82;44081;-85
2022/01/09 02:49:33;;;;;;;64.15;29.50;;;;;;;0.59;100.00;97983.86;4270684;82;28542;-88
2022/01/09 02:55:34;;;;;;;63.90;30.12;;;;;;;0.58;100.00;97980.11;4248210;82;43779;-79
2022/01/09 03:01:36;;;;;;;70.52;30.70;;;;;;;0.68;100.00;97980.59;4248197;82;44099;-82
2022/01/09 03:07:39;;;;;;;67.70;30.05;;;;;;;0.70;100.00;97965.33;4258469;82;44103;-80
2022/01/09 03:13:40;;;;;;;63.52;30.55;;;;;;;0.61;100.00;97955.91;4239998;82;43771;-86
2022/01/09 03:19:42;;;;;;;61.98;28.90;;;;;;;0.62;100.00;97950.92;4221036;82;28524;-84
2022/01/09 03:25:43;;;;;;;63.55;29.55;;;;;;;0.74;100.00;97946.72;4269149;81;44129;-82
2022/01/09 03:31:45;;;;;;;64.87;29.80;;;;;;;0.81;100.00;97948.08;4284874;81;44158;-82
2022/01/09 03:37:48;;;;;;;64.55;29.98;;;;;;;0.86;100.00;97958.91;4312744;81;43432;-81
2022/01/09 03:43:50;;;;;;;66.70;30.35;;;;;;;0.84;100.00;97946.39;4242702;82;44113;-82
2022/01/09 03:49:51;;;;;;;65.37;28.80;;;;;;;0.75;100.00;97927.19;4230005;82;43516;-81
2022/01/09 03:55:55;;;;;;;68.50;30.72;;;;;;;0.74;100.00;97914.97;4256003;82;44107;-83
2022/01/09 04:01:56;;;;;;;61.45;29.00;;;;;;;0.67;100.00;97902.20;4316970;81;43440;-83
2022/01/09 04:07:57;;;;;;;65.25;28.60;;;;;;;0.71;100.00;97898.17;4311063;81;43415;-84
2022/01/09 04:13:58;;;;;;;65.67;30.08;;;;;;;0.69;100.00;97894.39;4323986;81;44101;-84
2022/01/09 04:19:59;;;;;;;65.87;28.90;;;;;;;0.91;100.00;97886.35;4285925;81;43402;-82
2022/01/09 04:26:01;;;;;;;61.10;28.75;;;;;;;0.79;100.00;97875.53;4228192;82;43451;-84
2022/01/09 04:32:03;;;;;;;64.35;27.62;;;;;;;0.78;100.00;97875.22;4229311;82;28561;-80
2022/01/09 04:38:05;;;;;;;65.67;29.92;;;;;;;0.78;100.00;97889.77;4257420;82;44062;-79
2022/01/09 04:44:06;;;;;;;59.77;27.95;;;;;;;0.60;100.00;97886.30;4249414;82;43236;-81
2022/01/09 04:50:12;;;;;;;57.80;26.60;;;;;;;0.62;100.00;97891.41;4253416;82;42935;-81
2022/01/09 04:56:11;;;;;;;62.95;28.38;;;;;;;0.32;100.00;97879.73;4244170;82;43480;-80
2022/01/09 05:02:12;;;;;;;61.95;27.90;;;;;;;0.15;100.00;97878.69;4275417;81;43377;-80
2022/01/09 05:08:14;;;;;;;62.75;27.75;;;;;;;-0.01;100.00;97884.58;4238406;82;43439;-83
2022/01/09 05:14:15;;;;;;;64.17;28.20;;;;;;;-0.20;100.00;97879.45;4250193;82;43407;-81
2022/01/09 05:20:17;;;;;;;67.08;29.25;;;;;;;-0.31;100.00;97879.45;4224414;82;44103;-80
2022/01/09 05:26:18;;;;;;;83.70;35.73;;;;;;;-0.49;100.00;97875.10;4227795;82;43437;-78
2022/01/09 05:32:19;;;;;;;77.55;34.15;;;;;;;-0.43;100.00;97890.21;4239467;82;42903;-78
2022/01/09 05:38:21;;;;;;;75.70;33.67;;;;;;;-0.16;100.00;97895.72;4257901;82;43479;-80
2022/01/09 05:44:22;;;;;;;81.82;34.55;;;;;;;-0.19;100.00;97885.54;4291640;81;43060;-80
2022/01/09 05:50:24;;;;;;;76.37;33.92;;;;;;;-0.16;100.00;97885.15;4320698;81;42423;-80
2022/01/09 05:56:25;;;;;;;78.83;33.08;;;;;;;-0.08;100.00;97890.83;4257112;82;42524;-82
2022/01/09 06:02:27;;;;;;;72.87;31.82;;;;;;;0.07;100.00;97903.96;4228231;82;44068;-81
2022/01/09 06:08:28;;;;;;;73.75;30.35;;;;;;;0.30;100.00;97915.60;4360589;81;44236;-81
2022/01/09 06:14:29;;;;;;;69.90;31.15;;;;;;;0.37;100.00;97928.37;4241479;82;44126;-82
2022/01/09 06:20:31;;;;;;;67.62;31.25;;;;;;;0.24;100.00;97921.16;4266333;82;44076;-83
2022/01/09 06:26:32;;;;;;;76.12;33.65;;;;;;;0.25;100.00;97920.14;4250341;82;44131;-80
2022/01/09 06:32:34;;;;;;;71.20;31.87;;;;;;;0.17;100.00;97916.34;4229273;82;44123;-79
2022/01/09 06:38:37;;;;;;;66.57;30.82;;;;;;;0.50;100.00;97915.76;4219971;82;44076;-76
2022/01/09 06:44:39;;;;;;;69.50;29.75;;;;;;;0.48;100.00;97922.24;4231735;82;44122;-79
2022/01/09 06:50:40;;;;;;;67.78;29.63;;;;;;;0.49;100.00;97915.94;4227899;82;44103;-76
2022/01/09 06:56:42;;;;;;;69.42;30.35;;;;;;;0.60;100.00;97925.98;4223771;82;44138;-71
2022/01/09 07:02:44;;;;;;;70.45;30.85;;;;;;;0.64;100.00;97932.53;4229169;82;44197;-76
2022/01/09 07:08:46;;;;;;;70.28;31.33;;;;;;;0.62;100.00;97935.05;4229884;82;44158;-76
2022/01/09 07:14:47;;;;;;;66.80;31.33;;;;;;;0.58;100.00;97934.62;4233223;82;44191;-78
2022/01/09 07:20:48;;;;;;;62.17;30.25;;;;;;;0.68;100.00;97936.94;4201011;82;43478;-74
2022/01/09 07:26:49;;;;;;;71.80;30.40;;;;;;;0.69;100.00;97927.46;4248122;82;44115;-75
2022/01/09 07:32:51;;;;;;;71.10;32.13;;;;;;;0.72;100.00;97930.72;4211712;82;44209;-76
2022/01/09 07:38:52;;;;;;;71.65;31.37;;;;;;;0.91;100.00;97930.02;4234707;82;44134;-77
2022/01/09 07:44:53;;;;;;;70.60;30.62;;;;;;;0.86;100.00;97928.48;4239089;82;44119;-74
2022/01/09 07:50:54;;;;;;;64.70;30.82;;;;;;;1.02;100.00;97930.48;4224797;82;44149;-76
2022/01/09 07:56:55;;;;;;;66.60;30.82;;;;;;;1.15;100.00;97924.43;4220644;82;44160;-76
2022/01/09 08:02:57;;;;;;;70.97;30.62;;;;;;;1.23;100.00;97911.02;4213379;82;44136;-80
2022/01/09 08:08:58;;;;;;;64.20;29.42;;;;;;;1.17;100.00;97909.98;4218971;82;43499;-78
2022/01/09 08:15:00;;;;;;;67.67;30.05;;;;;;;1.30;100.00;97907.90;4230114;82;44167;-79
2022/01/09 08:21:01;;;;;;;68.85;30.37;;;;;;;1.33;100.00;97910.64;4220913;82;44128;-76
2022/01/09 08:27:05;;;;;;;71.10;31.65;;;;;;;1.30;100.00;97909.23;4234525;82;44122;-77
2022/01/09 08:33:06;;;;;;;69.87;32.08;;;;;;;1.48;100.00;97899.39;4212524;83;28474;-75
2022/01/09 08:39:10;;;;;;;71.42;30.85;;;;;;;1.22;100.00;97895.63;4214407;82;44152;-76
2022/01/09 08:45:11;;;;;;;68.75;30.45;;;;;;;1.10;100.00;97896.73;4231722;82;28580;-73
2022/01/09 08:51:13;;;;;;;63.73;28.12;;;;;;;1.23;100.00;97896.46;4219244;82;28547;-72
2022/01/09 08:57:14;;;;;;;66.10;27.85;;;;;;;1.29;100.00;97890.88;4212253;82;28510;-72
2022/01/09 09:03:15;;;;;;;52.23;24.32;;;;;;;1.34;100.00;97885.28;4229194;82;44152;-75
2022/01/09 09:09:16;;;;;;;51.10;23.50;;;;;;;1.37;100.00;97884.08;4236317;82;43847;-72
2022/01/09 09:15:20;;;;;;;53.85;23.70;;;;;;;1.41;100.00;97884.47;4224254;82;44127;-74
2022/01/09 09:21:21;;;;;;;44.20;22.07;;;;;;;1.60;100.00;97882.37;4221171;82;43768;-73
2022/01/09 09:27:29;;;;;;;44.83;21.55;;;;;;;1.69;100.00;97866.28;4215696;82;28514;-74
2022/01/09 09:33:25;;;;;;;49.42;22.87;;;;;;;1.65;100.00;97869.84;4292493;81;28537;-74
2022/01/09 09:39:27;;;;;;;49.93;23.02;;;;;;;1.88;100.00;97865.48;4236535;82;28517;-72
2022/01/09 09:45:29;;;;;;;49.23;23.05;;;;;;;2.00;100.00;97857.75;4238410;82;44426;-84
2022/01/09 09:51:30;;;;;;;49.25;22.60;;;;;;;2.20;100.00;97858.25;4241033;82;28486;-81
2022/01/09 09:57:32;;;;;;;49.13;21.27;;;;;;;2.22;100.00;97851.69;4289809;81;44477;-81
2022/01/09 10:03:34;;;;;;;46.53;22.02;;;;;;;2.41;100.00;97855.05;4299862;82;43778;-80
2022/01/09 10:09:35;;;;;;;46.37;21.62;;;;;;;2.48;100.00;97852.68;4285834;81;28483;-83
2022/01/09 10:15:53;;;;;;;46.45;21.62;;;;;;;2.74;100.00;97860.78;4281117;81;29216;-74
2022/01/09 10:21:54;;;;;;;43.15;21.30;;;;;;;2.68;100.00;97862.42;4276213;81;28506;-72
2022/01/09 10:28:17;;;;;;;43.92;21.90;;;;;;;3.10;100.00;97857.27;4287049;82;28508;-75
2022/01/09 10:34:18;;;;;;;47.48;22.02;;;;;;;2.95;100.00;97848.25;4256856;82;28535;-75
2022/01/09 10:40:29;;;;;;;44.48;22.07;;;;;;;2.81;100.00;97841.64;4249197;82;28553;-74
2022/01/09 10:46:31;;;;;;;46.42;20.95;;;;;;;3.20;100.00;97836.37;4241950;82;28540;-74
2022/01/09 10:52:38;;;;;;;44.58;19.92;;;;;;;3.11;100.00;97838.45;4232227;82;28616;-74
2022/01/09 10:58:49;;;;;;;39.48;17.50;;;;;;;3.48;100.00;97826.70;4238006;82;28557;-73
2022/01/09 11:04:50;;;;;;;37.73;16.23;;;;;;;3.46;100.00;97830.09;4277828;81;28515;-72
2022/01/09 11:10:53;;;;;;;33.65;15.08;;;;;;;3.59;100.00;97823.05;4305439;81;28567;-70
2022/01/09 11:16:58;;;;;;;33.67;14.65;;;;;;;3.76;99.53;97823.32;4235991;81;28555;-71
2022/01/09 11:23:04;;;;;;;25.95;12.63;;;;;;;3.78;93.18;97823.11;4207580;82;28547;-72
2022/01/09 11:29:09;;;;;;;29.27;13.45;;;;;;;3.85;91.28;97827.84;4155658;83;28535;-72
2022/01/09 11:35:58;;;;;;;32.73;14.80;;;;;;;3.99;91.84;97813.92;4199682;83;28516;-72
2022/01/09 11:42:13;;;;;;;26.82;12.05;;;;;;;3.98;95.68;97817.62;4192325;83;28522;-73
2022/01/09 11:48:19;;;;;;;16.80;7.57;;;;;;;4.31;88.90;97815.15;4197614;82;28519;-73
2022/01/09 11:54:23;;;;;;;9.43;4.35;;;;;;;4.33;76.27;97819.76;4221213;83;28640;-72
2022/01/09 12:00:38;;;;;;;7.72;4.08;;;;;;;4.50;74.08;97816.50;4210164;82;28493;-72
2022/01/09 12:06:40;;;;;;;9.63;3.95;;;;;;;4.35;68.18;97819.02;4220709;82;28531;-72
2022/01/09 12:12:41;;;;;;;6.95;3.47;;;;;;;4.54;68.23;97818.50;4209065;82;28508;-73
2022/01/09 12:18:45;;;;;;;9.45;3.83;;;;;;;4.59;69.28;97814.66;4209148;82;28521;-73
2022/01/09 12:24:48;;;;;;;7.83;3.22;;;;;;;4.64;65.23;97814.00;4197050;82;28570;-73
2022/01/09 12:31:01;;;;;;;6.85;3.58;;;;;;;4.64;65.57;97808.67;4202589;83;28516;-73
2022/01/09 12:37:02;;;;;;;8.25;3.85;;;;;;;4.79;65.70;97814.95;4221299;84;28549;-74
2022/01/09 12:43:04;;;;;;;8.73;4.20;;;;;;;4.71;62.24;97811.25;4202956;82;28661;-74
2022/01/09 12:49:09;;;;;;;8.98;3.98;;;;;;;4.83;62.30;97808.13;4208337;82;28497;-73
2022/01/09 12:55:15;;;;;;;7.45;3.75;;;;;;;4.88;62.79;97800.27;4220012;82;28567;-73
2022/01/09 13:01:32;;;;;;;8.37;3.97;;;;;;;4.79;62.04;97800.81;4217158;84;28566;-73
2022/01/09 13:07:33;;;;;;;7.75;4.10;;;;;;;4.90;61.93;97803.25;4212320;82;28493;-72
2022/01/09 13:13:38;;;;;;;7.78;3.90;;;;;;;4.76;62.19;97813.25;4199416;82;28572;-73
2022/01/09 13:19:40;;;;;;;9.70;4.35;;;;;;;4.75;62.01;97820.41;4286492;81;28524;-72
2022/01/09 13:25:46;;;;;;;7.72;4.20;;;;;;;4.60;60.64;97820.78;4298908;81;28509;-73
2022/01/09 13:31:59;;;;;;;9.05;3.72;;;;;;;4.61;62.37;97817.08;4309435;81;28544;-72
2022/01/09 13:38:03;;;;;;;10.70;4.65;;;;;;;4.44;62.30;97815.03;4304941;81;28515;-83
2022/01/09 13:44:07;;;;;;;12.18;4.37;;;;;;;4.48;64.70;97814.58;4300157;81;28455;-79
2022/01/09 13:50:12;;;;;;;10.05;4.55;;;;;;;4.35;65.79;97810.20;4279771;81;28507;-77
2022/01/09 13:56:18;;;;;;;10.82;4.70;;;;;;;4.29;65.69;97813.23;4274970;81;28499;-80
2022/01/09 14:02:22;;;;;;;9.18;4.40;;;;;;;4.21;68.29;97820.99;4291845;82;28495;-77
2022/01/09 14:08:35;;;;;;;11.83;4.75;;;;;;;4.05;69.26;97829.81;4303519;81;28487;-75
2022/01/09 14:14:46;;;;;;;10.58;4.37;;;;;;;3.94;71.83;97825.21;4279618;81;28543;-73
2022/01/09 14:20:48;;;;;;;10.43;4.75;;;;;;;3.81;71.27;97826.16;4291069;81;28551;-73
2022/01/09 14:26:57;;;;;;;8.18;3.92;;;;;;;3.63;72.69;97827.72;4310723;81;28532;-72
2022/01/09 14:33:26;;;;;;;8.53;4.28;;;;;;;3.42;75.97;97828.87;4278741;81;28523;-82
2022/01/09 14:39:32;;;;;;;9.55;4.37;;;;;;;3.29;78.23;97833.77;4287206;80;28558;-81
2022/01/09 14:45:32;;;;;;;11.60;4.60;;;;;;;3.24;79.50;97840.23;4276638;81;28477;-80
2022/01/09 14:51:50;;;;;;;9.58;4.25;;;;;;;2.89;81.65;97845.92;4287939;81;28580;-82
2022/01/09 14:57:51;;;;;;;9.60;4.17;;;;;;;2.78;83.60;97846.88;4293966;81;28518;-81
2022/01/09 15:03:53;;;;;;;10.88;5.28;;;;;;;2.62;85.31;97844.67;4294228;81;28579;-83
2022/01/09 15:09:54;;;;;;;10.40;4.30;;;;;;;2.40;88.97;97846.80;4292703;81;28512;-81
2022/01/09 15:15:56;;;;;;;9.85;4.33;;;;;;;2.32;90.43;97854.44;4294178;81;28513;-80
2022/01/09 15:21:57;;;;;;;8.13;4.10;;;;;;;2.22;90.67;97863.62;4264357;81;28540;-82
2022/01/09 15:28:01;;;;;;;16.82;6.83;;;;;;;2.15;92.22;97868.14;4292155;81;28522;-83
2022/01/09 15:34:03;;;;;;;21.93;8.65;;;;;;;2.05;91.88;97875.17;4237931;82;28508;-81
2022/01/09 15:40:06;;;;;;;23.47;11.22;;;;;;;2.11;99.63;97885.47;4344950;80;28515;-83
2022/01/09 15:46:11;;;;;;;27.85;13.05;;;;;;;1.93;100.00;97884.76;4321752;80;28568;-81
2022/01/09 15:52:12;;;;;;;30.77;13.53;;;;;;;1.93;100.00;97896.69;4348741;80;43824;-82
2022/01/09 15:58:14;;;;;;;26.25;12.50;;;;;;;1.92;100.00;97895.06;4348652;80;28496;-83
2022/01/09 16:04:17;;;;;;;32.08;14.38;;;;;;;1.84;100.00;97901.88;4344733;80;28522;-82
2022/01/09 16:10:21;;;;;;;32.38;14.90;;;;;;;1.69;100.00;97907.36;4346969;80;28527;-81
2022/01/09 16:16:22;;;;;;;30.25;14.87;;;;;;;1.60;100.00;97912.05;4352500;80;28562;-81
2022/01/09 16:22:24;;;;;;;34.92;14.73;;;;;;;1.48;100.00;97923.23;4351138;80;44160;-81
2022/01/09 16:28:26;;;;;;;31.68;14.65;;;;;;;1.52;100.00;97926.30;4353330;80;28551;-82
2022/01/09 16:34:27;;;;;;;32.63;15.83;;;;;;;1.49;100.00;97931.97;4346269;80;28576;-80
2022/01/09 16:40:29;;;;;;;36.63;16.48;;;;;;;1.22;100.00;97947.79;4341479;80;44506;-80
2022/01/09 16:46:30;;;;;;;36.55;15.68;;;;;;;1.17;100.00;97944.91;4350303;80;44530;-83
2022/01/09 16:52:33;;;;;;;34.92;16.77;;;;;;;1.14;100.00;97958.55;4346634;80;44495;-82
2022/01/09 16:58:35;;;;;;;36.15;17.20;;;;;;;1.15;100.00;97956.20;4344121;80;28605;-83
2022/01/09 17:04:37;;;;;;;34.98;15.18;;;;;;;1.18;100.00;97963.74;4344327;80;28540;-79
2022/01/09 17:10:38;;;;;;;30.65;14.05;;;;;;;1.02;100.00;97956.45;4349166;80;28520;-77
2022/01/09 17:16:39;;;;;;;30.25;13.78;;;;;;;0.88;100.00;97959.53;4354957;80;43495;-81
2022/01/09 17:22:45;;;;;;;32.63;15.40;;;;;;;0.82;100.00;97960.30;4346980;80;44128;-70
2022/01/09 17:28:46;;;;;;;30.20;13.40;;;;;;;0.73;100.00;97966.26;4354149;80;43446;-70
2022/01/09 17:34:48;;;;;;;35.95;16.57;;;;;;;0.73;100.00;97969.39;4347248;80;44483;-70
2022/01/09 17:40:49;;;;;;;37.13;16.45;;;;;;;0.68;100.00;97976.62;4350985;80;28543;-76
2022/01/09 17:46:50;;;;;;;39.18;17.00;;;;;;;0.66;100.00;97986.55;4346137;80;44449;-75
2022/01/09 17:52:52;;;;;;;34.43;16.23;;;;;;;0.63;100.00;97991.75;4231221;82;44249;-77
2022/01/09 17:58:57;;;;;;;36.90;16.60;;;;;;;0.45;100.00;97998.81;4235305;82;44466;-76
2022/01/09 18:04:58;;;;;;;;;;;;;;;0.51;100.00;98002.52;4239685;82;28515;-76
2022/01/09 18:11:02;;;;;;;37.80;17.73;;;;;;;0.53;100.00;98006.61;4225684;82;44575;-79
2022/01/09 18:17:03;;;;;;;41.65;17.57;;;;;;;0.44;100.00;98017.53;4234785;82;44508;-78
2022/01/09 18:23:05;;;;;;;43.00;18.42;;;;;;;0.37;100.00;98028.86;4224272;82;43712;-77
2022/01/09 18:29:09;;;;;;;36.80;16.67;;;;;;;0.34;100.00;98029.25;4239497;82;44522;-77
2022/01/09 18:35:10;;;;;;;44.58;20.92;;;;;;;0.37;100.00;98038.12;4239115;82;43759;-78
2022/01/09 18:41:12;;;;;;;46.98;20.50;;;;;;;0.32;100.00;98039.20;4240470;82;43759;-78
2022/01/09 18:47:13;;;;;;;46.30;21.50;;;;;;;0.24;100.00;98045.41;4239026;80;43757;-78
2022/01/09 18:53:15;;;;;;;48.98;20.82;;;;;;;0.33;100.00;98050.09;4271346;82;44418;-76
2022/01/09 18:59:16;;;;;;;41.40;19.80;;;;;;;0.33;100.00;98058.52;4279191;81;43684;-76
2022/01/09 19:05:22;;;;;;;50.17;22.67;;;;;;;0.27;100.00;98059.60;4281610;81;44462;-77
2022/01/09 19:11:23;;;;;;;39.08;17.62;;;;;;;0.20;100.00;98055.23;4292450;81;28506;-78
2022/01/09 19:17:25;;;;;;;51.10;23.77;;;;;;;0.22;100.00;98061.98;4275344;81;43704;-75
2022/01/09 19:23:28;;;;;;;51.42;24.77;;;;;;;0.12;100.00;98064.94;4273692;81;44048;-76
2022/01/09 19:29:30;;;;;;;49.40;23.80;;;;;;;0.08;100.00;98069.47;4268941;81;44540;-83
2022/01/09 19:35:31;;;;;;;56.20;24.12;;;;;;;0.15;100.00;98073.50;4259558;81;44106;-79
2022/01/09 19:41:33;;;;;;;52.30;22.45;;;;;;;-0.02;100.00;98078.52;4260671;82;43732;-71
2022/01/09 19:47:37;;;;;;;52.67;24.15;;;;;;;-0.19;100.00;98095.09;4256117;81;44207;-72
2022/01/09 19:53:38;;;;;;;52.85;22.73;;;;;;;-0.25;100.00;98098.97;4348232;80;44188;-74
2022/01/09 19:59:40;;;;;;;52.75;21.77;;;;;;;-0.09;100.00;98103.23;4288837;81;43964;-73
2022/01/09 20:05:42;;;;;;;49.98;22.73;;;;;;;-0.19;100.00;98112.27;4226827;83;44462;-75
2022/01/09 20:11:47;;;;;;;48.52;22.25;;;;;;;-0.18;100.00;98120.99;4297665;81;44496;-74
2022/01/09 20:17:48;;;;;;;48.10;21.93;;;;;;;-0.13;100.00;98117.80;4306386;81;44122;-74
2022/01/09 20:23:51;;;;;;;48.02;22.20;;;;;;;-0.26;100.00;98125.88;4294150;81;44409;-74
2022/01/09 20:29:54;;;;;;;51.07;22.43;;;;;;;-0.32;100.00;98126.60;4294077;81;34575;-81
2022/01/09 20:35:56;;;;;;;52.98;23.65;;;;;;;-0.32;100.00;98142.45;4296531;81;44105;-81
2022/01/09 20:41:58;;;;;;;47.75;22.35;;;;;;;-0.51;100.00;98138.06;4295142;81;44480;-83
2022/01/09 20:48:00;;;;;;;48.42;21.52;;;;;;;-0.39;100.00;98142.88;4335880;80;44477;-82
2022/01/09 20:54:02;;;;;;;52.38;22.30;;;;;;;-0.61;100.00;98152.83;4240094;82;43609;-82
2022/01/09 21:00:09;;;;;;;54.77;22.95;;;;;;;-0.73;100.00;98156.92;4209999;82;44142;-83
2022/01/09 21:06:10;;;;;;;50.45;23.00;;;;;;;-0.90;100.00;98167.61;4243978;82;44475;-83
2022/01/09 21:12:12;;;;;;;51.48;22.82;;;;;;;-0.80;100.00;98175.78;4244081;82;43908;-75
2022/01/09 21:18:13;;;;;;;53.40;22.55;;;;;;;-0.87;100.00;98188.39;4216532;82;44091;-74
2022/01/09 21:24:14;;;;;;;54.10;22.85;;;;;;;-0.83;100.00;98184.90;4245320;82;44098;-75
2022/01/09 21:30:16;;;;;;;52.17;21.23;;;;;;;-0.79;100.00;98192.77;4218923;83;43747;-75
2022/01/09 21:36:18;;;;;;;50.03;21.87;;;;;;;-0.90;100.00;98199.28;4248256;82;43605;-76
2022/01/09 21:42:19;;;;;;;51.15;21.80;;;;;;;-1.00;100.00;98207.94;4242908;82;43706;-75
2022/01/09 21:48:21;;;;;;;52.60;23.20;;;;;;;-1.11;100.00;98211.83;4254786;80;44113;-77
2022/01/09 21:54:22;;;;;;;53.58;23.02;;;;;;;-1.27;100.00;98220.16;4356204;80;44116;-75
2022/01/09 22:00:26;;;;;;;52.58;23.92;;;;;;;-1.39;100.00;98219.44;4357467;80;43895;-75
2022/01/09 22:06:27;;;;;;;50.63;21.82;;;;;;;-1.35;100.00;98222.04;4355485;80;44456;-76
2022/01/09 22:12:29;;;;;;;47.53;21.97;;;;;;;-1.44;100.00;98234.47;4356029;82;43815;-78
2022/01/09 22:18:30;;;;;;;48.60;21.70;;;;;;;-1.62;100.00;98247.87;4355098;80;44142;-76
2022/01/09 22:24:33;;;;;;;46.83;20.80;;;;;;;-1.86;100.00;98247.00;4356667;80;44448;-75
2022/01/09 22:30:34;;;;;;;42.25;20.27;;;;;;;-2.13;100.00;98247.24;4354495;80;43757;-75
2022/01/09 22:36:36;;;;;;;48.00;20.95;;;;;;;-1.98;100.00;98261.02;4354549;81;43769;-75
2022/01/09 22:42:37;;;;;;;50.30;22.15;;;;;;;-1.88;100.00;98256.89;4356372;80;44455;-75
2022/01/09 22:48:39;;;;;;;48.52;22.15;;;;;;;-2.07;100.00;98260.74;4354521;80;44448;-75
2022/01/09 22:54:40;;;;;;;50.95;22.50;;;;;;;-1.92;100.00;98269.58;4355647;80;44038;-76
2022/01/09 23:00:45;;;;;;;51.23;21.87;;;;;;;-2.01;100.00;98275.86;4352560;80;44468;-75
2022/01/09 23:06:47;;;;;;;51.18;22.20;;;;;;;-2.02;100.00;98291.34;4355546;80;44058;-75
2022/01/09 23:12:49;;;;;;;48.63;21.12;;;;;;;-2.08;100.00;98304.69;4355667;80;44206;-77
2022/01/09 23:18:50;;;;;;;49.67;22.87;;;;;;;-2.25;100.00;98302.07;4356980;80;44491;-75
2022/01/09 23:24:53;;;;;;;53.50;23.42;;;;;;;-2.27;100.00;98304.56;4354085;80;44077;-75
2022/01/09 23:30:54;;;;;;;52.98;22.48;;;;;;;-2.17;100.00;98313.11;4368522;80;44080;-76
2022/01/09 23:43:08;;;;;;;58.02;24.77;;;;;;;-2.41;100.00;98320.53;4273767;81;44133;-76
2022/01/09 23:55:35;;;;;;;60.95;26.33;;;;;;;-2.42;100.00;98334.69;4239180;83;42458;-78
